createdAt,value
2019-04-05T00:01:32.324Z,8.51
2019-04-05T00:04:04.521Z,8.51
2019-04-05T00:06:35.358Z,8.45
2019-04-05T00:09:07.798Z,8.42
2019-04-05T00:11:38.584Z,8.50
2019-04-05T00:14:09.600Z,8.60
2019-04-05T00:16:40.317Z,8.68
2019-04-05T00:19:10.849Z,8.77
2019-04-05T00:21:41.515Z,8.85
2019-04-05T00:24:12.287Z,8.85
2019-04-05T00:26:43.222Z,8.85
2019-04-05T00:29:15.806Z,8.98
2019-04-05T00:31:46.743Z,9.09
2019-04-05T00:34:17.416Z,9.09
2019-04-05T00:36:48.036Z,9.06
2019-04-05T00:39:19.016Z,8.93
2019-04-05T00:41:49.631Z,8.93
2019-04-05T00:44:19.960Z,8.83
2019-04-05T00:46:50.576Z,8.83
2019-04-05T00:49:21.634Z,8.78
2019-04-05T00:51:52.424Z,8.68
2019-04-05T00:54:23.473Z,8.64
2019-04-05T00:56:54.322Z,8.59
2019-04-05T00:59:24.709Z,8.51
2019-04-05T01:01:55.600Z,8.45
2019-04-05T01:04:27.365Z,8.41
2019-04-05T01:06:59.114Z,8.37
2019-04-05T01:09:29.944Z,8.36
2019-04-05T01:12:00.807Z,8.40
2019-04-05T01:14:31.820Z,8.37
2019-04-05T01:17:02.638Z,8.34
2019-04-05T01:19:35.735Z,8.37
2019-04-05T01:22:08.692Z,8.58
2019-04-05T01:24:39.395Z,8.58
2019-04-05T01:27:10.238Z,8.56
2019-04-05T01:29:40.589Z,8.61
2019-04-05T01:32:10.952Z,8.61
2019-04-05T01:34:41.554Z,8.65
2019-04-05T01:37:11.894Z,8.72
2019-04-05T01:39:42.214Z,8.79
2019-04-05T01:42:12.632Z,8.84
2019-04-05T01:44:43.769Z,8.82
2019-04-05T01:47:14.112Z,8.83
2019-04-05T01:49:44.461Z,8.91
2019-04-05T01:52:15.079Z,8.93
2019-04-05T01:54:45.648Z,8.93
2019-04-05T01:57:15.988Z,8.78
2019-04-05T01:59:47.048Z,8.82
2019-04-05T02:02:17.388Z,8.85
2019-04-05T02:04:47.914Z,8.90
2019-04-05T02:07:18.371Z,8.92
2019-04-05T02:09:49.123Z,8.99
2019-04-05T02:12:19.479Z,9.00
2019-04-05T02:14:49.919Z,9.00
2019-04-05T02:17:20.278Z,9.01
2019-04-05T02:19:50.577Z,9.10
2019-04-05T02:22:20.935Z,9.03
2019-04-05T02:24:51.295Z,8.96
2019-04-05T02:27:21.697Z,8.77
2019-04-05T02:29:52.196Z,8.77
2019-04-05T02:32:22.548Z,8.75
2019-04-05T02:34:52.817Z,8.69
2019-04-05T02:37:23.179Z,8.59
2019-04-05T02:39:53.673Z,8.49
2019-04-05T02:42:24.577Z,8.47
2019-04-05T02:44:56.026Z,8.43
2019-04-05T02:47:27.490Z,8.43
2019-04-05T02:49:59.362Z,8.39
2019-04-05T02:52:30.783Z,8.31
2019-04-05T02:55:02.847Z,8.32
2019-04-05T02:57:35.562Z,8.40
2019-04-05T03:00:08.757Z,8.33
2019-04-05T03:02:39.562Z,8.39
2019-04-05T03:05:10.580Z,8.39
2019-04-05T03:07:41.320Z,8.40
2019-04-05T03:10:15.475Z,8.45
2019-04-05T03:12:46.273Z,8.40
2019-04-05T03:15:17.092Z,8.46
2019-04-05T03:17:48.064Z,8.42
2019-04-05T03:20:19.074Z,8.46
2019-04-05T03:22:49.761Z,8.46
2019-04-05T03:25:20.612Z,8.56
2019-04-05T03:27:51.553Z,8.60
2019-04-05T03:30:42.369Z,8.64
2019-04-05T03:33:12.905Z,8.64
2019-04-05T03:35:43.417Z,8.72
2019-04-05T03:38:14.232Z,8.75
2019-04-05T03:40:45.646Z,8.81
2019-04-05T03:43:16.365Z,8.72
2019-04-05T03:45:47.414Z,8.74
2019-04-05T03:48:18.263Z,8.74
2019-04-05T03:50:49.057Z,8.73
2019-04-05T03:53:19.699Z,8.77
2019-04-05T03:55:51.268Z,8.72
2019-04-05T03:58:22.217Z,8.75
2019-04-05T04:00:52.808Z,8.85
2019-04-05T04:03:23.293Z,8.82
2019-04-05T04:05:53.592Z,8.92
2019-04-05T04:08:25.539Z,8.90
2019-04-05T04:10:56.970Z,8.95
2019-04-05T04:13:27.720Z,8.97
2019-04-05T04:15:58.216Z,8.90
2019-04-05T04:18:28.731Z,8.96
2019-04-05T04:21:02.795Z,9.08
2019-04-05T04:23:33.988Z,9.14
2019-04-05T04:26:04.683Z,9.30
2019-04-05T04:28:35.211Z,9.18
2019-04-05T04:31:05.767Z,9.18
2019-04-05T04:33:36.435Z,9.29
2019-04-05T04:36:06.929Z,9.21
2019-04-05T04:38:38.586Z,9.53
2019-04-05T04:41:09.516Z,9.53
2019-04-05T04:43:40.887Z,9.42
2019-04-05T04:46:11.635Z,9.42
2019-04-05T04:48:42.836Z,9.52
2019-04-05T04:51:14.111Z,9.52
2019-04-05T04:53:45.718Z,9.60
2019-04-05T04:56:16.286Z,9.63
2019-04-05T04:58:46.944Z,9.77
2019-04-05T05:01:17.975Z,9.77
2019-04-05T05:03:49.047Z,9.75
2019-04-05T05:06:19.913Z,9.75
2019-04-05T05:08:52.037Z,9.75
2019-04-05T05:11:22.442Z,9.70
2019-04-05T05:13:53.183Z,9.73
2019-04-05T05:16:24.482Z,9.73
2019-04-05T05:18:55.379Z,9.86
2019-04-05T05:21:26.591Z,9.87
2019-04-05T05:23:59.067Z,9.70
2019-04-05T05:26:30.611Z,9.70
2019-04-05T05:29:01.537Z,9.94
2019-04-05T05:31:32.716Z,9.78
2019-04-05T05:34:03.430Z,9.78
2019-04-05T05:36:34.335Z,9.95
2019-04-05T05:39:06.489Z,10.11
2019-04-05T05:41:36.855Z,10.18
2019-04-05T05:44:07.336Z,10.22
2019-04-05T05:46:37.778Z,10.29
2019-04-05T05:49:08.170Z,10.14
2019-04-05T05:51:39.364Z,10.30
2019-04-05T05:54:09.792Z,10.39
2019-04-05T05:56:40.088Z,10.28
2019-04-05T05:59:10.435Z,10.74
2019-04-05T06:01:40.827Z,11.05
2019-04-05T06:04:12.765Z,10.99
2019-04-05T06:06:43.279Z,11.01
2019-04-05T06:09:14.035Z,11.09
2019-04-05T06:11:44.295Z,11.02
2019-04-05T06:14:14.599Z,11.07
2019-04-05T06:16:46.642Z,11.07
2019-04-05T06:19:17.153Z,11.22
2019-04-05T06:21:47.484Z,11.19
2019-04-05T06:24:18.093Z,10.99
2019-04-05T06:26:49.315Z,11.02
2019-04-05T06:29:19.994Z,11.01
2019-04-05T06:31:50.638Z,11.08
2019-04-05T06:34:22.607Z,11.29
2019-04-05T06:36:53.281Z,11.07
2019-04-05T06:39:24.050Z,11.04
2019-04-05T06:41:54.964Z,11.13
2019-04-05T06:44:27.822Z,11.34
2019-04-05T06:46:58.012Z,11.44
2019-04-05T06:49:28.639Z,11.44
2019-04-05T06:51:59.179Z,11.56
2019-04-05T06:54:29.846Z,11.57
2019-04-05T06:57:00.555Z,11.68
2019-04-05T06:59:31.193Z,11.78
2019-04-05T07:02:10.745Z,12.09
2019-04-05T07:04:41.411Z,12.04
2019-04-05T07:07:12.449Z,12.12
2019-04-05T07:09:43.297Z,12.48
2019-04-05T07:12:13.938Z,12.49
2019-04-05T07:14:44.375Z,12.44
2019-04-05T07:17:15.038Z,12.24
2019-04-05T07:19:45.512Z,12.12
2019-04-05T07:22:15.783Z,12.07
2019-04-05T07:24:49.538Z,11.78
2019-04-05T07:27:20.240Z,12.17
2019-04-05T07:29:51.148Z,12.16
2019-04-05T07:32:22.089Z,12.09
2019-04-05T07:34:52.858Z,12.06
2019-04-05T07:37:23.453Z,12.37
2019-04-05T07:39:54.102Z,11.97
2019-04-05T07:42:24.463Z,12.28
2019-04-05T07:44:54.905Z,12.27
2019-04-05T07:47:25.223Z,12.48
2019-04-05T07:49:55.436Z,12.66
2019-04-05T07:52:25.850Z,12.47
2019-04-05T07:54:56.240Z,12.69
2019-04-05T07:57:26.677Z,12.87
2019-04-05T07:59:57.104Z,12.75
2019-04-05T08:02:27.462Z,12.81
2019-04-05T08:04:57.913Z,12.83
2019-04-05T08:07:32.162Z,12.65
2019-04-05T08:10:03.175Z,12.78
2019-04-05T08:12:33.984Z,12.50
2019-04-05T08:15:04.910Z,12.24
2019-04-05T08:17:35.176Z,12.11
2019-04-05T08:20:05.756Z,12.05
2019-04-05T08:22:36.229Z,11.54
2019-04-05T08:25:06.861Z,11.99
2019-04-05T08:27:37.318Z,12.37
2019-04-05T08:30:08.899Z,12.31
2019-04-05T08:32:39.212Z,12.42
2019-04-05T08:35:09.518Z,12.45
2019-04-05T08:37:39.978Z,12.44
2019-04-05T08:40:10.940Z,12.68
2019-04-05T08:42:41.340Z,12.48
2019-04-05T08:45:12.043Z,12.36
2019-04-05T08:47:42.449Z,12.46
2019-04-05T08:50:12.857Z,12.03
2019-04-05T08:52:43.241Z,12.07
2019-04-05T08:55:13.889Z,12.08
2019-04-05T08:57:44.231Z,12.33
2019-04-05T09:00:15.048Z,12.52
2019-04-05T09:02:45.517Z,12.42
2019-04-05T09:05:16.271Z,12.51
2019-04-05T09:07:47.095Z,12.33
2019-04-05T09:10:17.558Z,12.64
2019-04-05T09:12:48.379Z,12.67
2019-04-05T09:15:19.207Z,12.84
2019-04-05T09:17:49.608Z,13.08
2019-04-05T09:20:19.982Z,12.93
2019-04-05T09:22:50.388Z,12.67
2019-04-05T09:25:21.990Z,12.71
2019-04-05T09:27:52.586Z,12.57
2019-04-05T09:30:23.745Z,12.45
2019-04-05T09:32:54.269Z,12.77
2019-04-05T09:35:24.781Z,13.08
2019-04-05T09:37:57.105Z,13.16
2019-04-05T09:40:27.937Z,13.14
2019-04-05T09:42:58.319Z,13.07
2019-04-05T09:45:28.794Z,12.50
2019-04-05T09:47:59.586Z,12.94
2019-04-05T09:50:30.248Z,12.92
2019-04-05T09:53:01.190Z,13.08
2019-04-05T09:55:31.865Z,13.16
2019-04-05T09:58:02.609Z,13.51
2019-04-05T10:00:33.326Z,13.67
